Time;durP1;ratioP1;P1;durP2;ratioP2;P2;SDS_P1;SDS_P2;PMS_P1;PMS_P2;Temp;Humidity;BMP_temperature;BMP_pressure;BME280_temperature;BME280_humidity;BME280_pressure;Samples;Min_cycle;Max_cycle;Signal;HPM_P1;HPM_P2
2022/02/15 00:02:04;;;;;;;10.27;4.43;;;;;;;6.31;75.64;99051.16;4996994;28;20088;-65
2022/02/15 00:04:49;;;;;;;10.05;4.72;;;;;;;6.30;75.56;99046.84;4995919;28;20060;-65
2022/02/15 00:07:35;;;;;;;;;;;;;;;6.29;75.46;99053.72;4996985;28;20516;-64
2022/02/15 00:10:19;;;;;;;11.27;4.43;;;;;;;6.27;75.64;99054.50;4996865;28;20277;-65
2022/02/15 00:13:03;;;;;;;13.80;5.07;;;;;;;6.30;75.64;99055.47;4996498;28;20502;-64
2022/02/15 00:15:47;;;;;;;11.48;4.85;;;;;;;6.29;75.76;99051.16;4996755;28;20073;-65
2022/02/15 00:18:31;;;;;;;11.80;5.28;;;;;;;6.32;75.58;99058.03;4996719;28;20057;-64
2022/02/15 00:21:15;;;;;;;10.32;4.93;;;;;;;6.31;75.70;99058.88;4995776;28;20065;-65
2022/02/15 00:23:59;;;;;;;12.65;4.22;;;;;;;6.29;75.89;99056.28;4995412;28;20137;-65
2022/02/15 00:26:43;;;;;;;8.35;4.97;;;;;;;6.28;76.01;99054.56;4995743;28;20053;-65
2022/02/15 00:29:29;;;;;;;8.73;4.03;;;;;;;6.30;75.45;99057.16;4995474;28;20409;-65
2022/02/15 00:32:13;;;;;;;7.03;4.03;;;;;;;6.30;75.41;99055.47;4996893;28;20054;-65
2022/02/15 00:34:57;;;;;;;8.75;4.22;;;;;;;6.29;75.92;99052.84;4996132;28;20077;-64
2022/02/15 00:37:42;;;;;;;9.98;3.92;;;;;;;6.28;76.00;99058.81;4996142;28;20048;-64
2022/02/15 00:40:26;;;;;;;12.00;4.80;;;;;;;6.28;75.39;99064.84;4995272;28;20049;-65
2022/02/15 00:43:10;;;;;;;9.50;4.57;;;;;;;6.28;75.93;99059.72;4995307;28;20053;-65
2022/02/15 00:45:54;;;;;;;7.40;5.22;;;;;;;6.28;76.17;99066.53;4996154;28;20049;-65
2022/02/15 00:48:38;;;;;;;9.65;3.97;;;;;;;6.29;75.38;99066.59;4994901;28;20085;-64
2022/02/15 00:51:22;;;;;;;10.10;5.40;;;;;;;6.27;76.00;99072.53;4996160;28;20076;-65
2022/02/15 00:54:06;;;;;;;9.65;4.20;;;;;;;6.28;75.43;99071.69;4994812;28;20089;-65
2022/02/15 00:56:49;;;;;;;12.35;3.95;;;;;;;6.27;76.03;99075.97;4995660;28;20144;-65
2022/02/15 00:59:33;;;;;;;8.48;4.93;;;;;;;6.28;75.81;99076.84;4995733;28;20053;-64
2022/02/15 01:02:18;;;;;;;11.90;5.03;;;;;;;6.27;75.61;99078.56;4995897;28;20069;-65
2022/02/15 01:05:02;;;;;;;;;;;;;;;6.28;75.90;99085.44;4995039;28;20050;-65
2022/02/15 01:07:46;;;;;;;9.57;4.93;;;;;;;6.27;75.47;99087.97;4995062;28;19941;-65
2022/02/15 01:10:30;;;;;;;10.55;5.05;;;;;;;6.29;75.84;99102.63;4994777;28;20125;-66
2022/02/15 01:13:14;;;;;;;13.18;4.65;;;;;;;6.30;75.54;99101.78;4994870;28;20049;-65
2022/02/15 01:15:58;;;;;;;7.60;4.07;;;;;;;6.30;75.58;99106.94;4995602;28;20080;-65
2022/02/15 01:18:42;;;;;;;11.75;5.78;;;;;;;6.30;75.83;99109.50;4994517;28;20072;-65
2022/02/15 01:21:26;;;;;;;11.20;5.07;;;;;;;6.30;75.73;99121.47;4994700;28;20045;-64
2022/02/15 01:24:10;;;;;;;12.32;4.95;;;;;;;6.30;75.93;99117.22;4995445;28;20053;-65
2022/02/15 01:26:54;;;;;;;7.05;4.45;;;;;;;6.31;75.79;99129.22;4995069;28;20173;-65
2022/02/15 01:29:37;;;;;;;16.30;5.90;;;;;;;6.31;76.14;99129.22;4994295;28;20128;-65
2022/02/15 01:32:21;;;;;;;11.85;5.05;;;;;;;6.30;75.99;99130.09;4995070;28;20064;-64
2022/02/15 01:35:05;;;;;;;12.38;5.47;;;;;;;6.30;75.53;99136.94;4995044;28;20068;-65
2022/02/15 01:37:49;;;;;;;7.65;5.53;;;;;;;6.31;75.54;99138.66;4995220;28;20116;-65
2022/02/15 01:40:33;;;;;;;14.98;5.05;;;;;;;6.29;75.68;99138.66;4994265;28;20100;-65
2022/02/15 01:43:17;;;;;;;9.30;5.97;;;;;;;6.30;75.65;99148.09;4994897;28;20117;-64
2022/02/15 01:46:01;;;;;;;14.10;6.85;;;;;;;6.30;75.93;99147.22;4995084;28;20053;-65
2022/02/15 01:48:47;;;;;;;9.98;5.47;;;;;;;6.30;76.26;99149.78;4993720;28;20045;-65
2022/02/15 01:51:30;;;;;;;13.88;5.97;;;;;;;6.29;76.02;99145.47;4994702;28;20057;-65
2022/02/15 01:54:17;;;;;;;13.32;6.55;;;;;;;6.29;76.11;99141.22;4994465;28;20084;-65
2022/02/15 01:57:01;;;;;;;13.60;6.57;;;;;;;6.27;75.97;99145.47;4993916;28;20048;-65
2022/02/15 01:59:45;;;;;;;11.75;6.25;;;;;;;6.27;76.11;99148.03;4994526;28;20069;-65
2022/02/15 02:02:29;;;;;;;10.35;6.80;;;;;;;6.28;75.58;99144.63;4994388;28;20108;-65
2022/02/15 02:08:18;;;;;;;11.13;6.35;;;;;;;6.27;76.17;99153.19;4994416;28;20008;-65
2022/02/15 02:11:03;;;;;;;11.70;5.90;;;;;;;6.25;75.90;99153.13;4994260;28;20049;-65
2022/02/15 02:13:47;;;;;;;12.05;6.40;;;;;;;6.25;76.21;99147.13;4994414;28;20046;-64
2022/02/15 02:16:31;;;;;;;13.88;7.05;;;;;;;6.27;75.90;99154.88;4993592;28;20060;-65
2022/02/15 02:19:16;;;;;;;16.38;7.75;;;;;;;6.28;76.15;99157.50;4993580;28;20101;-65
2022/02/15 02:22:01;;;;;;;9.82;7.10;;;;;;;6.27;76.00;99168.63;4994498;28;20105;-64
2022/02/15 02:24:45;;;;;;;16.02;7.45;;;;;;;6.27;76.17;99171.19;4992614;28;20068;-65
2022/02/15 02:27:31;;;;;;;12.02;8.70;;;;;;;6.25;75.76;99168.56;4994277;28;20053;-65
2022/02/15 02:30:16;;;;;;;12.20;7.20;;;;;;;6.26;75.97;99161.75;4993363;28;20057;-65
2022/02/15 02:33:01;;;;;;;13.30;7.68;;;;;;;6.28;75.85;99161.75;4993687;28;20085;-65
2022/02/15 02:35:44;;;;;;;11.15;7.60;;;;;;;6.29;76.35;99163.50;4994219;28;20556;-65
2022/02/15 02:38:28;;;;;;;10.48;7.32;;;;;;;6.28;75.96;99161.75;4993548;28;20044;-65
2022/02/15 02:41:12;;;;;;;10.25;6.45;;;;;;;6.27;75.94;99173.78;4994275;28;20057;-65
2022/02/15 02:43:56;;;;;;;11.60;6.25;;;;;;;6.28;75.98;99172.06;4994325;28;20572;-64
2022/02/15 02:46:40;;;;;;;9.32;6.50;;;;;;;6.28;76.11;99172.94;4994192;28;20057;-65
2022/02/15 02:49:24;;;;;;;12.88;6.78;;;;;;;6.28;76.36;99177.19;4994226;28;20046;-64
2022/02/15 02:52:08;;;;;;;11.75;8.00;;;;;;;6.28;76.38;99178.09;4993960;28;20085;-65
2022/02/15 02:54:52;;;;;;;13.43;7.70;;;;;;;6.30;76.44;99186.72;4993777;28;20092;-64
2022/02/15 02:57:37;;;;;;;9.23;6.78;;;;;;;6.28;76.36;99183.22;4994151;28;20050;-64
2022/02/15 03:00:21;;;;;;;11.52;6.38;;;;;;;6.28;76.07;99188.38;4993143;28;20521;-65
2022/02/15 03:03:07;;;;;;;;;;;;;;;6.28;75.87;99183.22;4994888;28;20109;-65
2022/02/15 03:05:51;;;;;;;9.63;6.90;;;;;;;6.25;76.28;99184.00;4993194;28;19940;-64
2022/02/15 03:08:35;;;;;;;11.90;7.78;;;;;;;6.25;76.36;99186.59;4993919;28;20084;-65
2022/02/15 03:11:19;;;;;;;14.18;7.68;;;;;;;6.25;76.58;99194.31;4994117;28;20057;-65
2022/02/15 03:14:03;;;;;;;16.67;8.43;;;;;;;6.25;76.38;99198.59;4993979;28;20153;-64
2022/02/15 03:16:47;;;;;;;19.33;9.65;;;;;;;6.26;76.56;99202.91;4993999;28;20177;-65
2022/02/15 03:19:30;;;;;;;12.40;7.82;;;;;;;6.26;76.73;99208.06;4994279;28;20061;-64
2022/02/15 03:22:16;;;;;;;13.93;7.97;;;;;;;6.26;76.38;99208.06;4993639;28;20088;-64
2022/02/15 03:24:59;;;;;;;12.70;8.07;;;;;;;6.25;76.23;99214.03;4992784;28;20104;-65
2022/02/15 03:27:43;;;;;;;11.77;7.70;;;;;;;6.25;76.28;99214.91;4992918;28;20077;-65
2022/02/15 03:30:27;;;;;;;11.18;8.18;;;;;;;6.27;76.53;99207.22;4993487;28;20053;-65
2022/02/15 03:33:11;;;;;;;15.63;8.32;;;;;;;6.26;76.73;99205.50;4992883;28;20061;-65
2022/02/15 03:35:55;;;;;;;18.65;9.75;;;;;;;6.25;76.17;99214.91;4995908;28;20049;-65
2022/02/15 03:38:40;;;;;;;;;;;;;;;6.27;76.33;99221.78;4996709;28;20494;-65
2022/02/15 03:44:27;;;;;;;11.35;8.48;;;;;;;6.26;76.41;99223.50;4997292;28;20105;-65
2022/02/15 03:47:13;;;;;;;15.82;7.60;;;;;;;6.26;76.67;99223.50;4997142;28;20450;-65
2022/02/15 03:49:57;;;;;;;11.93;8.20;;;;;;;6.26;76.23;99233.78;4996261;28;20057;-64
2022/02/15 03:52:41;;;;;;;14.23;7.68;;;;;;;6.27;76.17;99242.38;4996847;28;20045;-64
2022/02/15 03:55:26;;;;;;;14.30;8.32;;;;;;;6.24;76.82;99251.75;4996866;28;20044;-65
2022/02/15 03:58:10;;;;;;;;;;;;;;;6.23;76.86;99254.31;4997045;28;20057;-65
2022/02/15 04:00:54;;;;;;;15.00;8.30;;;;;;;6.22;76.49;99255.16;4997079;28;19921;-65
2022/02/15 04:03:37;;;;;;;17.42;10.32;;;;;;;6.22;76.53;99270.59;4996602;28;20133;-65
2022/02/15 04:06:21;;;;;;;13.05;8.65;;;;;;;6.24;76.51;99271.50;4996968;28;20621;-65
2022/02/15 04:09:06;;;;;;;18.48;9.13;;;;;;;6.23;76.87;99274.91;4995976;28;20521;-65
2022/02/15 04:11:49;;;;;;;21.83;11.02;;;;;;;6.21;76.36;99277.44;4997070;28;20099;-65
2022/02/15 04:14:33;;;;;;;16.88;10.20;;;;;;;6.23;76.70;99288.63;4995400;28;20073;-65
2022/02/15 04:17:17;;;;;;;12.68;8.73;;;;;;;6.22;77.00;99289.47;4996487;28;20053;-65
2022/02/15 04:20:02;;;;;;;19.02;9.95;;;;;;;6.23;76.77;99300.63;4996670;28;20046;-65
2022/02/15 04:22:49;;;;;;;17.58;10.23;;;;;;;6.23;76.90;99291.19;4996696;28;20045;-65
2022/02/15 04:25:33;;;;;;;15.55;9.48;;;;;;;6.24;76.68;99299.78;4995707;28;20521;-65
2022/02/15 04:28:17;;;;;;;17.88;9.98;;;;;;;6.25;76.82;99301.53;4996271;28;20057;-65
2022/02/15 04:31:01;;;;;;;18.42;10.90;;;;;;;6.25;76.98;99301.53;4996362;28;20120;-65
2022/02/15 04:33:44;;;;;;;17.38;10.85;;;;;;;6.22;76.99;99314.34;4996269;28;20080;-65
2022/02/15 04:36:28;;;;;;;17.58;10.88;;;;;;;6.23;77.08;99314.34;4996391;28;20049;-65
2022/02/15 04:39:12;;;;;;;19.58;10.93;;;;;;;6.21;76.87;99313.47;4995982;28;20049;-64
2022/02/15 04:41:56;;;;;;;;;;;;;;;6.20;76.75;99323.72;4995687;28;20054;-65
2022/02/15 04:44:41;;;;;;;18.73;10.73;;;;;;;6.19;76.87;99324.56;4996255;28;19921;-66
2022/02/15 04:47:25;;;;;;;20.55;11.60;;;;;;;6.18;77.08;99331.41;4994085;28;20045;-65
2022/02/15 04:50:09;;;;;;;19.42;11.73;;;;;;;6.19;76.72;99332.28;4996007;28;20057;-65
2022/02/15 04:52:54;;;;;;;14.80;10.18;;;;;;;6.18;77.09;99322.81;4995090;28;20513;-64
2022/02/15 04:55:37;;;;;;;16.55;10.82;;;;;;;6.18;76.86;99335.69;4994742;28;20054;-65
2022/02/15 04:58:21;;;;;;;20.30;13.10;;;;;;;6.17;76.86;99336.50;4995843;28;20041;-64
2022/02/15 05:01:05;;;;;;;20.20;11.60;;;;;;;6.18;77.12;99341.72;4995635;28;20093;-65
2022/02/15 05:03:49;;;;;;;16.05;11.05;;;;;;;6.17;77.08;99352.84;4994858;28;20553;-66
2022/02/15 05:06:35;;;;;;;19.92;12.00;;;;;;;6.17;76.86;99355.41;4995869;28;20045;-65
2022/02/15 05:09:20;;;;;;;20.35;12.27;;;;;;;6.17;77.27;99363.13;4994941;28;20077;-65
2022/02/15 05:12:04;;;;;;;16.33;11.30;;;;;;;6.15;76.88;99362.22;4995420;28;20048;-65
2022/02/15 05:14:48;;;;;;;;;;;;;;;6.15;77.12;99356.22;4995639;28;20056;-65
2022/02/15 05:17:32;;;;;;;24.50;13.43;;;;;;;6.14;76.71;99357.06;4995431;28;19973;-65
2022/02/15 05:20:17;;;;;;;15.90;11.63;;;;;;;6.13;76.82;99363.03;4994583;28;20061;-65
2022/02/15 05:23:01;;;;;;;17.08;11.60;;;;;;;6.13;77.00;99355.31;4994307;28;20125;-64
2022/02/15 05:25:47;;;;;;;18.90;12.93;;;;;;;6.13;77.26;99352.72;4994240;28;20457;-65
2022/02/15 05:28:32;;;;;;;18.95;11.82;;;;;;;6.15;77.17;99369.09;4994518;28;20118;-66
2022/02/15 05:31:16;;;;;;;17.42;11.77;;;;;;;6.16;76.80;99368.22;4995122;28;20081;-65
2022/02/15 05:34:00;;;;;;;20.20;12.20;;;;;;;6.15;77.18;99366.50;4994868;28;20050;-65
2022/02/15 05:36:43;;;;;;;18.98;12.13;;;;;;;6.14;77.49;99372.50;4995131;28;20054;-65
2022/02/15 05:39:27;;;;;;;17.67;12.55;;;;;;;6.16;76.72;99374.25;4994956;28;20429;-65
2022/02/15 05:42:11;;;;;;;21.50;12.55;;;;;;;6.16;77.18;99373.38;4994388;28;20088;-65
2022/02/15 05:44:55;;;;;;;16.52;11.70;;;;;;;6.14;77.10;99377.63;4995146;28;20434;-64
2022/02/15 05:47:40;;;;;;;19.20;12.98;;;;;;;6.13;77.25;99368.16;4995046;28;20048;-64
2022/02/15 05:53:28;;;;;;;21.23;12.90;;;;;;;6.13;76.99;99383.59;4994676;28;20509;-65
2022/02/15 05:56:12;;;;;;;16.65;12.07;;;;;;;6.13;77.52;99378.47;4993902;28;20053;-64
2022/02/15 05:58:56;;;;;;;21.00;13.38;;;;;;;6.12;77.27;99387.00;4994302;28;20081;-65
2022/02/15 06:01:40;;;;;;;18.38;11.13;;;;;;;6.09;77.18;99383.53;4994580;28;20116;-65
2022/02/15 06:04:23;;;;;;;22.15;13.30;;;;;;;6.11;77.40;99390.41;4994815;28;20053;-65
2022/02/15 06:07:07;;;;;;;19.92;13.60;;;;;;;6.11;77.19;99387.84;4994796;28;20056;-65
2022/02/15 06:09:52;;;;;;;21.70;12.32;;;;;;;6.08;76.99;99397.22;4994252;28;20096;-65
2022/02/15 06:12:36;;;;;;;20.17;14.15;;;;;;;6.08;77.00;99407.53;4993800;28;20053;-65
2022/02/15 06:15:20;;;;;;;20.08;12.40;;;;;;;6.05;77.11;99397.16;4994220;28;20122;-65
2022/02/15 06:18:04;;;;;;;14.98;10.95;;;;;;;6.03;77.05;99409.09;4994680;28;20057;-65
2022/02/15 06:20:48;;;;;;;15.23;9.85;;;;;;;6.03;77.30;99406.53;4994361;28;20061;-65
2022/02/15 06:23:32;;;;;;;13.20;9.63;;;;;;;6.05;76.90;99410.00;4993132;28;20499;-65
2022/02/15 06:26:18;;;;;;;18.75;11.25;;;;;;;6.04;77.46;99420.28;4993563;28;20049;-65
2022/02/15 06:29:02;;;;;;;19.05;12.02;;;;;;;6.04;77.33;99423.72;4993284;28;20465;-65
2022/02/15 06:31:46;;;;;;;21.30;10.95;;;;;;;6.06;77.49;99428.91;4993206;28;20077;-66
2022/02/15 06:34:30;;;;;;;17.30;10.40;;;;;;;6.05;76.86;99425.44;4994105;28;20405;-65
2022/02/15 06:37:15;;;;;;;17.10;10.60;;;;;;;6.05;76.96;99433.16;4994472;28;20124;-65
2022/02/15 06:40:00;;;;;;;17.27;10.68;;;;;;;6.06;77.45;99432.34;4993110;28;20107;-65
2022/02/15 06:42:46;;;;;;;16.92;12.35;;;;;;;6.06;76.84;99434.06;4993414;28;20049;-65
2022/02/15 06:45:30;;;;;;;17.98;11.32;;;;;;;6.05;77.36;99435.75;4993136;28;20065;-65
2022/02/15 06:48:14;;;;;;;22.00;11.95;;;;;;;6.05;77.00;99443.47;4994040;28;20512;-65
2022/02/15 06:50:57;;;;;;;19.73;11.95;;;;;;;6.05;77.24;99443.47;4994129;28;20056;-65
2022/02/15 06:53:46;;;;;;;21.35;12.02;;;;;;;6.06;77.42;99452.06;4993055;28;20570;-65
2022/02/15 06:56:31;;;;;;;18.20;11.82;;;;;;;6.04;77.22;99459.72;4993073;28;20050;-65
2022/02/15 06:59:15;;;;;;;;;;;;;;;6.03;76.98;99460.56;4993307;28;20575;-65
2022/02/15 07:01:59;;;;;;;22.15;12.60;;;;;;;6.03;77.59;99460.56;4993749;28;19968;-65
2022/02/15 07:04:43;;;;;;;18.15;12.02;;;;;;;6.01;77.59;99463.94;4993878;28;20054;-65
2022/02/15 07:07:27;;;;;;;22.88;11.52;;;;;;;6.03;77.53;99473.41;4994181;28;20050;-65
2022/02/15 07:10:12;;;;;;;27.83;12.70;;;;;;;6.03;77.47;99470.84;4994770;28;20069;-65
2022/02/15 07:12:56;;;;;;;19.55;11.80;;;;;;;6.03;76.87;99482.84;4998023;28;20077;-65
2022/02/15 07:15:40;;;;;;;17.27;11.77;;;;;;;6.03;77.49;99486.28;4996608;28;20054;-65
2022/02/15 07:18:26;;;;;;;16.95;10.90;;;;;;;6.01;77.52;99482.78;4997264;28;20089;-64
2022/02/15 07:21:13;;;;;;;19.42;11.02;;;;;;;6.01;77.39;99482.78;4996840;28;20092;-65
2022/02/15 07:23:58;;;;;;;23.55;11.70;;;;;;;6.02;77.43;99486.25;4996706;28;20061;-66
2022/02/15 07:26:41;;;;;;;19.75;12.00;;;;;;;6.02;77.23;99504.25;4997363;28;20520;-65
2022/02/15 07:29:25;;;;;;;21.40;10.77;;;;;;;6.00;77.38;99500.78;4997445;28;20054;-66
2022/02/15 07:32:10;;;;;;;17.20;11.23;;;;;;;6.02;77.00;99507.69;4996323;28;20061;-64
2022/02/15 07:34:56;;;;;;;;;;;;;;;6.01;77.53;99505.09;4997704;28;20053;-65
2022/02/15 07:37:40;;;;;;;18.52;10.98;;;;;;;5.99;77.92;99504.13;4996125;28;20336;-65
2022/02/15 07:40:24;;;;;;;22.45;12.25;;;;;;;6.01;77.82;99515.38;4997482;28;20065;-64
2022/02/15 07:43:08;;;;;;;17.52;10.50;;;;;;;6.00;77.29;99514.50;4997422;28;20127;-65
2022/02/15 07:45:52;;;;;;;16.90;10.73;;;;;;;6.00;77.42;99519.63;4997219;28;20481;-65
2022/02/15 07:48:36;;;;;;;16.42;8.48;;;;;;;6.00;77.13;99524.78;4996411;28;20104;-64
2022/02/15 07:51:20;;;;;;;18.70;9.73;;;;;;;5.99;77.55;99523.03;4997055;28;20409;-65
2022/02/15 07:54:05;;;;;;;20.30;11.52;;;;;;;6.00;77.51;99527.34;4997088;28;20065;-65
2022/02/15 07:56:49;;;;;;;15.57;10.32;;;;;;;6.00;77.51;99537.66;4997035;28;20048;-65
2022/02/15 07:59:33;;;;;;;17.35;9.20;;;;;;;5.99;77.22;99545.31;4997084;28;20050;-65
2022/02/15 08:02:17;;;;;;;18.45;7.85;;;;;;;5.99;77.85;99541.03;4996632;28;20508;-65
2022/02/15 08:05:01;;;;;;;18.67;9.50;;;;;;;5.97;77.27;99546.97;4995919;28;20185;-64
2022/02/15 08:07:49;;;;;;;;;;;;;;;5.98;77.26;99539.31;4997114;28;20181;-65
2022/02/15 08:10:34;;;;;;;16.25;9.15;;;;;;;5.97;77.46;99546.97;4995812;28;19925;-65
2022/02/15 08:13:18;;;;;;;15.07;8.52;;;;;;;5.95;77.69;99558.06;4995934;28;20061;-65
2022/02/15 08:16:02;;;;;;;;;;;;;;;5.95;77.77;99563.22;4996273;28;20126;-65
2022/02/15 08:18:46;;;;;;;14.65;8.32;;;;;;;5.94;77.46;99558.03;4995614;28;19924;-65
2022/02/15 08:21:30;;;;;;;16.42;8.02;;;;;;;5.92;77.37;99558.00;4996326;28;20125;-65
2022/02/15 08:24:14;;;;;;;15.18;9.13;;;;;;;5.93;77.52;99558.88;4996716;28;20057;-65
2022/02/15 08:26:58;;;;;;;15.48;8.48;;;;;;;5.94;77.24;99560.63;4996244;28;20038;-65
2022/02/15 08:29:44;;;;;;;14.30;8.40;;;;;;;5.93;77.08;99554.59;4996286;28;20107;-65
2022/02/15 08:32:29;;;;;;;14.90;8.30;;;;;;;5.93;77.21;99556.31;4996573;28;20524;-65
2022/02/15 08:35:15;;;;;;;;;;;;;;;5.93;77.54;99564.03;4996563;28;20418;-65
2022/02/15 08:37:58;;;;;;;13.40;7.95;;;;;;;5.91;77.46;99570.81;4996445;28;19925;-65
2022/02/15 08:40:43;;;;;;;12.07;7.75;;;;;;;5.90;77.24;99572.53;4995195;28;20457;-64
2022/02/15 08:43:27;;;;;;;14.73;9.45;;;;;;;5.91;77.12;99568.25;4996296;28;20135;-65
2022/02/15 08:46:11;;;;;;;16.75;8.18;;;;;;;5.91;77.30;99574.28;4995098;28;20193;-64
2022/02/15 08:48:55;;;;;;;;;;;;;;;5.89;77.14;99570.78;4996557;28;20049;-65
2022/02/15 08:51:42;;;;;;;13.98;8.98;;;;;;;5.91;77.55;99576.84;4995089;28;19980;-65
2022/02/15 08:54:29;;;;;;;17.33;8.38;;;;;;;5.91;77.45;99579.44;4995614;28;20052;-65
2022/02/15 08:57:13;;;;;;;14.15;8.93;;;;;;;5.92;77.42;99578.56;4994982;28;20093;-65
2022/02/15 08:59:58;;;;;;;16.13;10.82;;;;;;;5.93;77.91;99572.59;4996026;28;20112;-66
2022/02/15 09:02:42;;;;;;;16.38;9.18;;;;;;;5.95;77.26;99581.22;4995616;28;20070;-64
2022/02/15 09:05:26;;;;;;;17.05;10.25;;;;;;;5.95;77.63;99588.09;4995080;28;20409;-65
2022/02/15 09:08:10;;;;;;;19.15;10.05;;;;;;;5.99;77.68;99596.75;4995868;28;20111;-65
2022/02/15 09:10:54;;;;;;;18.40;11.10;;;;;;;6.01;77.83;99600.28;4995377;28;20077;-65
2022/02/15 09:13:38;;;;;;;17.58;11.32;;;;;;;6.03;77.67;99612.34;4995696;28;20048;-65
2022/02/15 09:16:22;;;;;;;20.30;9.85;;;;;;;6.04;77.50;99610.66;4995687;28;20077;-65
2022/02/15 09:19:06;;;;;;;15.50;10.55;;;;;;;6.03;77.31;99607.19;4995115;28;20136;-65
2022/02/15 09:21:53;;;;;;;21.27;11.10;;;;;;;6.03;77.35;99608.91;4994637;28;20539;-64
2022/02/15 09:24:37;;;;;;;16.15;10.35;;;;;;;6.03;77.44;99630.34;4994474;28;20108;-65
2022/02/15 09:27:21;;;;;;;18.90;10.43;;;;;;;6.04;77.70;99623.53;4995440;28;20104;-64
2022/02/15 09:30:06;;;;;;;16.77;9.98;;;;;;;6.06;77.67;99624.44;4995043;28;20054;-65
2022/02/15 09:32:52;;;;;;;14.40;9.40;;;;;;;6.05;77.22;99620.97;4993877;28;20053;-65
2022/02/15 09:35:39;;;;;;;11.57;10.25;;;;;;;6.07;77.30;99621.91;4994970;28;20045;-65
2022/02/15 09:38:23;;;;;;;16.45;9.45;;;;;;;6.09;77.20;99621.94;4995090;28;20505;-65
2022/02/15 09:41:07;;;;;;;16.92;8.98;;;;;;;6.11;77.60;99625.41;4995006;28;20045;-64
2022/02/15 09:43:51;;;;;;;;;;;;;;;6.13;77.26;99620.31;4995293;28;20417;-65
2022/02/15 09:46:35;;;;;;;14.63;9.05;;;;;;;6.14;77.20;99628.06;4994911;28;19921;-64
2022/02/15 09:52:24;;;;;;;11.73;8.95;;;;;;;6.17;77.37;99630.75;4994985;28;20424;-65
2022/02/15 09:55:09;;;;;;;13.20;7.70;;;;;;;6.23;77.56;99635.19;4993767;28;20148;-64
2022/02/15 09:57:53;;;;;;;;;;;;;;;6.28;77.50;99632.72;4994190;28;20048;-64
2022/02/15 10:00:37;;;;;;;14.17;7.97;;;;;;;6.30;77.48;99633.63;4993969;28;19920;-65
2022/02/15 10:03:21;;;;;;;10.50;7.55;;;;;;;6.34;77.56;99627.75;4993701;28;20342;-65
2022/02/15 10:06:10;;;;;;;15.82;8.55;;;;;;;6.38;77.45;99635.59;4994612;28;20045;-65
2022/02/15 10:09:00;;;;;;;11.68;6.93;;;;;;;6.41;77.36;99634.78;4994520;28;20049;-65
2022/02/15 10:11:44;;;;;;;13.93;6.63;;;;;;;6.40;77.16;99633.94;4993757;28;20057;-65
2022/02/15 10:14:28;;;;;;;9.88;5.90;;;;;;;6.44;77.28;99634.00;4994288;28;20057;-65
2022/02/15 10:17:15;;;;;;;13.60;6.28;;;;;;;6.47;77.28;99632.38;4994433;28;20549;-64
2022/02/15 10:19:59;;;;;;;11.32;5.55;;;;;;;6.48;76.99;99646.13;4994370;28;20048;-64
2022/02/15 10:22:43;;;;;;;;;;;;;;;6.49;77.01;99648.75;4993769;28;20049;-65
2022/02/15 10:25:37;;;;;;;8.20;4.60;;;;;;;6.51;76.98;99653.91;4994567;28;20008;-64
2022/02/15 10:28:22;;;;;;;12.13;6.22;;;;;;;6.54;76.81;99664.31;4993497;28;20405;-66
2022/02/15 10:31:06;;;;;;;10.20;4.97;;;;;;;6.56;77.01;99654.94;4994510;28;20201;-65
2022/02/15 10:33:51;;;;;;;9.23;5.10;;;;;;;6.60;76.85;99661.03;4994045;28;20050;-65
2022/02/15 10:36:35;;;;;;;;;;;;;;;6.61;76.62;99671.38;4994418;28;20057;-65
2022/02/15 10:39:19;;;;;;;10.60;4.65;;;;;;;6.61;77.06;99657.63;4994005;28;19968;-64
2022/02/15 10:42:08;;;;;;;7.22;4.75;;;;;;;6.62;77.25;99657.63;4994281;28;20077;-64
2022/02/15 10:45:06;;;;;;;11.43;4.30;;;;;;;6.65;77.04;99662.88;4994034;28;20053;-65
2022/02/15 10:47:52;;;;;;;10.20;4.63;;;;;;;6.66;76.90;99659.47;4997303;28;20058;-65
2022/02/15 10:50:38;;;;;;;5.60;3.75;;;;;;;6.68;76.59;99650.09;4998157;28;20088;-65
2022/02/15 10:53:22;;;;;;;7.43;3.90;;;;;;;6.69;76.82;99649.25;4997358;28;20594;-65
2022/02/15 10:56:06;;;;;;;11.27;4.15;;;;;;;6.70;76.57;99651.00;4997454;28;20097;-65
2022/02/15 10:58:51;;;;;;;7.57;4.38;;;;;;;6.70;76.76;99642.38;4997887;28;20066;-65
2022/02/15 11:01:36;;;;;;;5.70;3.65;;;;;;;6.73;76.40;99628.72;4998407;28;20469;-66
2022/02/15 11:04:19;;;;;;;7.45;3.42;;;;;;;6.73;76.54;99633.88;4996942;28;20105;-65
2022/02/15 11:07:06;;;;;;;7.75;3.72;;;;;;;6.73;76.51;99631.31;4997899;28;20049;-65
2022/02/15 11:10:18;;;;;;;9.90;3.85;;;;;;;6.74;76.45;99633.06;4998036;28;20054;-65
2022/02/15 11:13:04;;;;;;;7.15;3.17;;;;;;;6.75;76.63;99629.66;4996925;28;20061;-65
2022/02/15 11:15:52;;;;;;;6.82;3.05;;;;;;;6.76;76.50;99624.53;4996592;28;20061;-65
2022/02/15 11:18:37;;;;;;;11.15;3.28;;;;;;;6.79;76.60;99624.59;4997929;28;20089;-64
2022/02/15 11:21:21;;;;;;;8.27;3.22;;;;;;;6.78;76.62;99622.84;4997640;28;20112;-65
2022/02/15 11:24:08;;;;;;;7.55;3.30;;;;;;;6.79;76.22;99618.56;4996801;28;20061;-64
2022/02/15 11:26:52;;;;;;;6.63;2.88;;;;;;;6.81;76.20;99614.31;4997082;28;20058;-65
2022/02/15 11:29:51;;;;;;;8.38;3.33;;;;;;;6.82;76.56;99622.09;4997310;28;20049;-65
2022/02/15 11:32:42;;;;;;;8.65;3.53;;;;;;;6.83;76.14;99610.09;4996622;28;20049;-65
2022/02/15 11:35:29;;;;;;;6.50;3.60;;;;;;;6.84;75.95;99614.41;4996581;28;20101;-64
2022/02/15 11:38:13;;;;;;;7.55;3.17;;;;;;;6.84;76.33;99611.81;4997501;28;20093;-65
2022/02/15 11:41:05;;;;;;;8.43;2.72;;;;;;;6.84;75.97;99617.88;4997180;28;20077;-65
2022/02/15 11:43:57;;;;;;;10.48;3.13;;;;;;;6.85;76.16;99604.13;4996298;28;20057;-65
2022/02/15 11:46:46;;;;;;;7.18;3.10;;;;;;;6.85;75.95;99609.28;4996360;28;20497;-65
2022/02/15 11:49:30;;;;;;;4.32;2.38;;;;;;;6.84;76.00;99611.81;4997273;28;20065;-66
2022/02/15 11:52:14;;;;;;;7.55;3.97;;;;;;;6.84;76.05;99604.09;4996514;28;20057;-64
2022/02/15 11:55:07;;;;;;;6.30;2.78;;;;;;;6.84;76.07;99602.41;4997062;28;20124;-65
2022/02/15 11:57:52;;;;;;;7.05;2.92;;;;;;;6.85;76.08;99605.84;4996934;28;20081;-65
2022/02/15 12:00:38;;;;;;;7.03;3.03;;;;;;;6.86;75.86;99597.28;4996926;28;20049;-65
2022/02/15 12:03:22;;;;;;;9.35;3.78;;;;;;;6.86;75.47;99595.56;4995758;28;20073;-65
2022/02/15 12:06:06;;;;;;;5.13;2.92;;;;;;;6.88;75.49;99587.88;4995741;28;20050;-66
2022/02/15 12:08:57;;;;;;;4.82;2.70;;;;;;;6.86;75.68;99587.84;4996811;28;20045;-66
2022/02/15 12:11:46;;;;;;;9.88;2.53;;;;;;;6.86;75.76;99584.41;4996673;28;20045;-65
2022/02/15 12:14:31;;;;;;;12.70;3.13;;;;;;;6.86;75.72;99576.66;4996554;28;20103;-65
2022/02/15 12:17:21;;;;;;;;;;;;;;;6.86;75.76;99571.53;4995879;28;20564;-65
2022/02/15 12:20:06;;;;;;;4.32;2.58;;;;;;;6.85;75.37;99578.38;4995995;28;19921;-65
2022/02/15 12:22:53;;;;;;;6.75;2.88;;;;;;;6.85;75.55;99580.94;4995611;28;20057;-65
2022/02/15 12:25:47;;;;;;;4.95;2.92;;;;;;;6.87;75.42;99565.53;4995509;28;20061;-65
2022/02/15 12:28:31;;;;;;;4.85;2.30;;;;;;;6.87;75.26;99560.38;4996568;28;20077;-65
2022/02/15 12:31:25;;;;;;;4.50;2.10;;;;;;;6.89;75.59;99568.13;4996505;28;20513;-66
2022/02/15 12:34:13;;;;;;;6.20;2.78;;;;;;;6.90;75.67;99555.31;4996434;28;20528;-65
2022/02/15 12:36:59;;;;;;;3.75;2.40;;;;;;;6.92;75.59;99558.78;4995490;28;20049;-65
2022/02/15 12:39:43;;;;;;;6.88;3.05;;;;;;;6.94;75.63;99563.97;4996350;28;20120;-66
2022/02/15 12:42:30;;;;;;;6.85;2.53;;;;;;;6.94;75.48;99556.25;4996223;28;20560;-66
2022/02/15 12:45:14;;;;;;;5.90;2.65;;;;;;;6.94;75.50;99551.09;4995984;28;20144;-65
2022/02/15 12:47:58;;;;;;;10.20;2.78;;;;;;;6.93;75.53;99550.19;4996182;28;20128;-65
2022/02/15 12:50:42;;;;;;;9.27;3.00;;;;;;;6.94;75.03;99546.78;4995221;28;20096;-65
2022/02/15 12:53:26;;;;;;;8.57;2.63;;;;;;;6.94;74.97;99533.91;4995298;28;20092;-65
2022/02/15 12:56:12;;;;;;;7.47;3.20;;;;;;;6.97;75.01;99540.84;4995797;28;20042;-65
2022/02/15 12:58:58;;;;;;;5.22;3.17;;;;;;;6.97;74.88;99544.28;4995916;28;20126;-65
2022/02/15 13:01:42;;;;;;;11.75;3.20;;;;;;;6.97;74.96;99540.84;4995305;28;20112;-65
2022/02/15 13:04:27;;;;;;;4.95;2.28;;;;;;;6.97;75.20;99536.56;4994801;28;20049;-65
2022/02/15 13:07:11;;;;;;;;;;;;;;;6.97;74.96;99540.84;4995309;28;20053;-65
2022/02/15 13:09:59;;;;;;;9.38;2.63;;;;;;;6.97;74.82;99531.41;4994937;28;20040;-65
2022/02/15 13:12:43;;;;;;;5.60;2.53;;;;;;;6.99;75.16;99534.91;4995523;28;20092;-66
2022/02/15 13:15:29;;;;;;;5.13;2.88;;;;;;;7.00;74.73;99521.19;4995222;28;20084;-65